Airfield :
LOGIN :

Register | Disclaimer

   EN    FR    IT 

 










Legend :    VFR   Marginal VFR   IFR   Intensive IFR   Very Intensive IFR
Visi :
Ceiling :
>= 8 km
>= 3000ft
5 to 8 km
1000 to 3000 ft
1500m to 5 km
500 to 1000 ft
800 to 1500m
200 to 500 ft
< 800m
< 200 ft
Symbols :   Thunderstorms  Fog  Heavy snow  Heavy precipitations  Wind > 20 kt
SIGMETs :     Misc.  Thunderstorms  Icing  Turbulence  Mountain Waves  Volcanic Ashes






- Airport Elevation : 353 ft
- IATA code : CND


LRCK - Constanta

CURRENT METAR :
  • 212230Z 11003KT 1000 R18/P2000 R36/0250N BCFG BR SCT010 11/11 Q1024 BECMG 0800 FG

EXPIRED METARs :
  • 212200Z 09003KT 1000 R18/P2000 R36/0275N BCFG BR SCT002 11/11 Q1024 BECMG 0800 FG
  • 212130Z 10004KT 1200 R18/P2000 R36/0325N BCFG BR SCT002 12/12 Q1024 NOSIG
  • 212100Z 09004KT 1200 R18/P2000 R36/0325N BCFG BR FEW001 12/12 Q1024 TEMPO 1500
  • 212030Z 09003KT 1000 R18/P2000 R36/0225D BCFG BR NSC 11/11 Q1024 BECMG 0800 FG
  • 212000Z 09004KT 1200 R18/P2000 R36/0350N BCFG BR NSC 13/13 Q1023 BECMG 0800 FG

TAF TAF LRCK
Valid from the 21 at 18:00 until the 22 at 18:00 UTC


211700Z 2118/2218 11010KT 8000 BR NSC
BECMG 2118/2120 VRB03KT 3000 BR
BECMG 2120/2122 1500 BR BKN005
BECMG 2122/2124 0600 FG OVC002
PROB40
TEMPO 2200/2204 0150 FG VV001
BECMG 2205/2207 3000 BR BKN010
BECMG 2207/2209 07010KT CAVOK



MET'MAP, your aeronautical weather chart ! - Copyright ORBIFLY December 2007 - Disclaimer

ORBIFLY MET'MAP TEAM :

Programming & Development : Alexandra Zaïnal
Concept & Development : Baudouin d'Aumeries
Co-Development & Prog : Marc-Olivier Méhu
Technical & hardware support : Manuel Goepfert

Contact : metmap@orbifly.com




SOURCES & CREDITS :

   NOAA